Friday, October 31, 2014
17:13 UTC
  |  Log In   |  Register Free
Airport Search:

Pike County-Hatcher Field Airport
(KPBX)

Pike County-Hatcher Field Airport Diagram
No Airport Diagram Available

FAA data valid effective September 18, 2014 - November 13, 2014 (unless otherwise noted).

 
 
 
 
 
 
 
 
 
 
 
 
 
 

Current Aviation Weather for Pike County-Hatcher Field Airport (KPBX)

The most recent METAR observation for KPBX was updated at: 1711
METAR Summary (Translated METAR)
KPBX
311555Z AUTO 00000KT 10SM -DZ SCT035 OVC042 06/04 A2994 RMK AO2 T00620040
KSJS
311555Z AUTO 26004KT 10SM DZ SCT033 SCT040 OVC045 07/05 A2995 RMK AO2 T00670049
(11.8 nm NW from KPBX)
KLNP
311655Z AUTO 26006KT 10SM OVC033 07/01 A2990 RMK AO2
(34.5 nm SE from KPBX)
TAF Summary (Translated TAF)
KSJS
(46.1 nm NW from KLNP)
311140Z 3112/0112 VRB03KT P6SM -RA OVC050 FM311600 VRB03KT 6SM -SHRA BR SCT025 BKN040 FM311900 VRB06KT 6SM -SHRA BR OVC025 FM010000 29007KT 3SM -RA BR OVC012 FM010600 30009KT 2SM -SN BR OVC007
  Airport Weather Conditions for KPBX

Current weather conditions are
not available for PBX


The nearest NOAA weather station
is at SJS, (11.8 nm NW from PBX)
  
 Current Weather at SJS
44° F
Drizzle
West winds at 4.6 mph
SJS NOAA Radar

Pressure: 29.95 in
Humidity: 88%
Wind: West at 4.6 MPH (4 KT)
Dew Point: 40.8°F
Visibility: 10.00 mi


Airport Weather Forecast for KPBX

Translated METAR and TAF for KLNP
Translated METAR for KLNP (1708 UTC 31 October 2014)
found at http://aviationweather.gov/adds/metars/
 
METAR text: KLNP 311655Z AUTO 26006KT 10SM OVC033 07/01 A2990 RMK AO2
Conditions at: KLNP (WISE/LONESOME PI, VA, US) observed 1655 UTC 31 October 2014
Temperature: 7.0°C (45°F)
Dewpoint: 1.0°C (34°F) [RH = 66%]
Pressure (altimeter): 29.90 inches Hg (1012.6 mb)
Winds: from the W (260 degrees) at 7 MPH (6 knots; 3.1 m/s)
Visibility: 10 or more miles (16+ km)
Ceiling: 3300 feet AGL
Clouds: overcast cloud deck at 3300 feet AGL
Weather: automated observation with no human augmentation;
there may or may not be significant weather present at this time
Translated TAF for KLNP

There is no translated TAF available for this airport

Find All Airport Services Find A Hotel Find A Rental Car Find A Golf Course Find A Restaurant $100 Hamburger



FBO's on the Field
FBO Company Facility Photos Services Transportation Aviation Fuel Prices: Prices include tax
Catering Weather Repair Courtesy Rental Type 100LL JetA JetA+ MOGAS 8087
 
Pikeville-Pike Airport

This FBO has not yet been rated
FS:Shell
Last Updated: Oct-17
Login to update fuel prices
SS:
Contact Pikeville-Pike AirportMore FBO Information
 
Add another FBO Facility Photos Catering Weather Repair Courtesy Rental Type 100LL JetA JetA+ MOGAS 8087
Services Transportation Aviation Fuel Prices: Prices include tax


model-print
model-print
model-print
model-print